Spiceland, Indiana
Current Conditions -  °F | °C
As of 3:55 PM on Tuesday 25 Nov 2014 (Local Time) from KMQJ Reporting Station
Overcast Overcast  
Wind Chill: 21°   Ceiling: 1800
Heat Index: 30°   Visibility: 10mi
Dew Point: 19°   Wind: 12mph
Humidity: 64%   Direction: 270°W
Pressure: 30.15"   Gusts: NA
Location:  39.84°N, 85.44°W
Report Text: KMQJ 252055Z AUTO 27010KT 10SM OVC018 M01/M07 A3015 RMK AO1
Loading
Personal Weather Stations






























Interactive Weather Map New forecast layout! Learn more

10-Day Weather Forecast

Advertisements
Track Severe Weather on mobile